Thursday, August 24, 2017, 1:01 AM EDT
Back to Local

KMPO, Mt Pocono Pocono Mountains

Location: Pocono Summit, PA, United States Lat: 41.133
Local Time: 1:01 AM EDT ( 5:01 GMT) Lon: -75.383
Time Zone: US/Eastern Elev: 1915 ft

Show me the last for .
Show Coded

Time T Td Feel RH Dir Speed Gust Alt SLP Vis Weather Sky Remarks
2017-08-23 23:53 54 54 - 100 300° 5 - 29.94 29.93 10 FEW048 SCT070 None
2017-08-23 22:53 53 53 - 100 - Calm - 29.94 29.93 10 SCT055 SCT070 None
2017-08-23 21:53 53 53 - 100 - Calm - 29.94 29.93 10 CLR None
2017-08-23 20:53 56 55 - 96 - Calm - 29.94 29.93 10 CLR None
2017-08-23 19:53 60 55 - 83 310° 3 - 29.93 29.91 10 CLR 6-hr Min Temp (8pm): 60.1°F
6-hr Max Temp (8pm): 73.0°F
2017-08-23 18:53 68 53 - 58 300° 6 - 29.91 29.89 10 FEW001 SCT070 None
2017-08-23 17:53 68 53 - 58 310° 6 - 29.91 29.89 10 BKN070 None
2017-08-23 16:53 69 52 - 54 290° 9 - 29.91 29.88 10 SCT065 None
2017-08-23 15:53 70 52 - 52 310° 12 - 29.91 29.88 10 BKN060 None
2017-08-23 14:53 72 52 76 49 300° 10 - 29.91 29.88 10 CLR None
2017-08-23 13:53 71 53 76 53 Variable 7 18 29.92 29.89 10 BKN044 6-hr Min Temp (2pm): 61.0°F
6-hr Max Temp (2pm): 72.0°F
2017-08-23 12:53 69 51 - 52 290° 12 18 29.92 29.89 10 CLR None
2017-08-23 11:53 68 50 - 52 300° 14 22 29.92 29.89 10 CLR None
2017-08-23 10:53 66 51 - 58 330° 10 17 29.92 29.89 10 CLR None
2017-08-23 09:53 64 51 - 62 330° 10 18 29.91 29.88 10 CLR None
2017-08-23 08:53 62 50 - 64 320° 15 22 29.90 29.87 10 CLR None
2017-08-23 07:53 61 55 - 80 330° 12 20 29.88 29.84 10 FEW012 24-hr Precip Total (8am): 0.03"
6-hr Min Temp (8am): 60.1°F
6-hr Max Temp (8am): 68.0°F
2017-08-23 07:39 61 56 - 83 340° 12 18 29.88 - 10 SCT012 None
2017-08-23 07:18 61 58 - 89 320° 8 - 29.88 - 10 BKN013 None
2017-08-23 06:53 60 58 - 92 320° 8 - 29.87 29.84 10 FEW011 None
2017-08-23 05:53 61 58 - 89 310° 14 22 29.86 29.82 10 BKN095 None
2017-08-23 04:53 65 65 - 100 310° 12 21 29.84 29.80 10 FEW017 FEW024 None
2017-08-23 04:36 66 65 - 96 300° 8 - 29.83 - 10 FEW008 None
2017-08-23 03:53 67 66 - 96 280° 12 - 29.82 29.78 10 OVC009 None
2017-08-23 03:17 67 66 - 96 280° 10 - 29.82 - 10 OVC009 None
2017-08-23 02:53 67 66 - 96 280° 12 - 29.83 29.78 10 BKN010 OVC014 None
2017-08-23 02:13 67 66 - 96 280° 10 - 29.83 - 10 SCT009 BKN012 None
2017-08-23 02:00 68 67 - 96 270° 13 - 29.83 - 10 BKN011 BKN014 None
2017-08-23 01:53 68 67 - 96 290° 12 - 29.83 29.79 10 BKN009 BKN015 6-hr Precip Total (2am): 0.03"
6-hr Min Temp (2am): 68.0°F
6-hr Max Temp (2am): 75.9°F

Support USWX by starting your Amazon purchase here.